createdAt,value
2022-09-26T00:00:17.044Z,91.86
2022-09-26T00:03:42.493Z,91.81
2022-09-26T00:06:45.599Z,92.00
2022-09-26T00:09:48.863Z,92.06
2022-09-26T00:12:51.406Z,91.99
2022-09-26T00:15:57.063Z,92.07
2022-09-26T00:19:00.106Z,92.00
2022-09-26T00:22:02.626Z,92.06
2022-09-26T00:25:05.257Z,92.01
2022-09-26T00:28:07.885Z,91.98
2022-09-26T00:31:12.185Z,91.97
2022-09-26T00:34:16.582Z,92.05
2022-09-26T00:37:19.112Z,92.14
2022-09-26T00:40:27.165Z,92.14
2022-09-26T00:43:29.705Z,92.24
2022-09-26T00:46:41.035Z,92.19
2022-09-26T00:49:44.647Z,92.14
2022-09-26T00:52:58.119Z,92.32
2022-09-26T00:56:08.788Z,92.24
2022-09-26T00:59:22.309Z,92.15
2022-09-26T01:02:27.201Z,92.22
2022-09-26T01:05:31.249Z,92.39
2022-09-26T01:08:40.308Z,92.46
2022-09-26T01:11:44.712Z,92.45
2022-09-26T01:14:47.571Z,92.45
2022-09-26T01:17:50.504Z,92.27
2022-09-26T01:21:02.946Z,92.26
2022-09-26T01:24:18.139Z,92.33
2022-09-26T01:27:30.154Z,92.49
2022-09-26T01:30:39.170Z,92.48
2022-09-26T01:33:47.087Z,92.45
2022-09-26T01:37:01.917Z,92.31
2022-09-26T01:40:21.273Z,92.34
2022-09-26T01:43:45.830Z,92.31
2022-09-26T01:46:48.684Z,92.26
2022-09-26T01:49:57.382Z,92.20
2022-09-26T01:53:01.773Z,92.30
2022-09-26T01:56:12.234Z,92.26
2022-09-26T01:59:29.548Z,92.35
2022-09-26T02:02:39.800Z,92.54
2022-09-26T02:05:52.571Z,92.64
2022-09-26T02:09:00.186Z,92.68
2022-09-26T02:12:05.823Z,91.97
2022-09-26T02:15:11.706Z,92.24
2022-09-26T02:18:20.591Z,91.71
2022-09-26T02:21:23.967Z,92.04
2022-09-26T02:24:27.343Z,92.26
2022-09-26T02:27:31.703Z,92.31
2022-09-26T02:30:34.926Z,91.83
2022-09-26T02:33:39.205Z,92.23
2022-09-26T02:36:41.717Z,91.95
2022-09-26T02:39:47.146Z,92.33
2022-09-26T02:42:55.143Z,90.86
2022-09-26T02:46:06.292Z,88.92
2022-09-26T02:49:09.508Z,89.18
2022-09-26T02:52:31.714Z,89.97
2022-09-26T02:55:52.034Z,91.14
2022-09-26T02:58:59.720Z,92.04
2022-09-26T03:02:06.087Z,92.01
2022-09-26T03:05:11.605Z,92.56
2022-09-26T03:08:17.631Z,93.30
2022-09-26T03:11:21.968Z,93.05
2022-09-26T03:14:24.537Z,92.78
2022-09-26T03:17:28.222Z,91.97
2022-09-26T03:20:30.928Z,92.41
2022-09-26T03:23:33.616Z,92.13
2022-09-26T03:26:37.192Z,92.15
2022-09-26T03:29:40.119Z,92.28
2022-09-26T03:32:44.256Z,92.43
2022-09-26T03:35:46.944Z,92.41
2022-09-26T03:38:49.735Z,92.38
2022-09-26T03:41:53.699Z,92.29
2022-09-26T03:44:56.986Z,92.86
2022-09-26T03:48:00.806Z,93.16
2022-09-26T03:51:10.881Z,93.27
2022-09-26T03:54:13.956Z,93.19
2022-09-26T03:57:17.607Z,93.36
2022-09-26T04:00:20.411Z,93.18
2022-09-26T04:03:23.204Z,92.19
2022-09-26T04:06:25.743Z,92.15
2022-09-26T04:09:29.095Z,92.02
2022-09-26T04:12:32.537Z,91.74
2022-09-26T04:15:37.963Z,91.95
2022-09-26T04:18:41.591Z,92.06
2022-09-26T04:21:45.138Z,92.34
2022-09-26T04:24:49.679Z,92.49
2022-09-26T04:27:52.599Z,92.58
2022-09-26T04:30:57.501Z,92.46
2022-09-26T04:34:00.506Z,92.51
2022-09-26T04:37:03.217Z,92.53
2022-09-26T04:40:06.100Z,92.26
2022-09-26T04:43:08.872Z,92.51
2022-09-26T04:46:24.585Z,92.58
2022-09-26T04:49:31.415Z,92.85
2022-09-26T04:52:34.135Z,93.14
2022-09-26T04:55:36.517Z,92.98
2022-09-26T04:58:41.747Z,92.68
2022-09-26T05:01:44.728Z,92.11
2022-09-26T05:04:48.293Z,90.26
2022-09-26T05:07:50.600Z,89.76
2022-09-26T05:10:55.082Z,91.03
2022-09-26T05:13:58.348Z,91.71
2022-09-26T05:17:04.968Z,91.80
2022-09-26T05:20:11.047Z,91.83
2022-09-26T05:23:34.703Z,91.70
2022-09-26T05:26:40.351Z,91.49
2022-09-26T05:29:43.417Z,91.15
2022-09-26T05:32:48.522Z,91.05
2022-09-26T05:35:54.074Z,90.80
2022-09-26T05:38:56.443Z,90.90
2022-09-26T05:41:59.637Z,91.27
2022-09-26T05:45:03.220Z,91.25
2022-09-26T05:48:06.768Z,91.24
2022-09-26T05:51:13.829Z,91.40
2022-09-26T05:54:16.979Z,91.36
2022-09-26T05:57:21.777Z,91.63
2022-09-26T06:00:26.897Z,91.44
2022-09-26T06:03:34.617Z,92.11
2022-09-26T06:06:37.809Z,92.03
2022-09-26T06:09:44.791Z,92.22
2022-09-26T06:12:50.842Z,92.50
2022-09-26T06:15:54.587Z,92.28
2022-09-26T06:18:57.499Z,92.23
2022-09-26T06:22:00.237Z,92.21
2022-09-26T06:25:04.482Z,91.94
2022-09-26T06:28:07.506Z,91.63
2022-09-26T06:31:12.755Z,91.61
2022-09-26T06:34:16.617Z,91.02
2022-09-26T06:37:19.332Z,91.39
2022-09-26T06:40:21.995Z,90.82
2022-09-26T06:43:24.792Z,90.31
2022-09-26T06:46:31.849Z,91.35
2022-09-26T06:49:35.329Z,92.17
2022-09-26T06:52:37.869Z,91.39
2022-09-26T06:55:40.360Z,91.35
2022-09-26T06:58:43.683Z,91.87
2022-09-26T07:01:47.839Z,91.71
2022-09-26T07:04:51.047Z,91.26
2022-09-26T07:07:55.025Z,91.65
2022-09-26T07:11:27.604Z,92.13
2022-09-26T07:14:23.928Z,91.51
2022-09-26T07:17:27.077Z,91.53
2022-09-26T07:20:33.160Z,91.20
2022-09-26T07:23:36.777Z,91.17
2022-09-26T07:26:39.174Z,90.38
2022-09-26T07:29:42.739Z,90.96
2022-09-26T07:32:49.050Z,89.64
2022-09-26T07:35:52.587Z,88.99
2022-09-26T07:38:55.352Z,89.92
2022-09-26T07:41:58.140Z,89.75
2022-09-26T07:48:42.034Z,89.89
2022-09-26T07:51:47.023Z,91.19
2022-09-26T07:54:52.074Z,91.79
2022-09-26T07:57:55.848Z,91.50
2022-09-26T08:00:58.636Z,88.76
2022-09-26T08:04:02.363Z,89.95
2022-09-26T08:07:04.970Z,90.05
2022-09-26T08:10:15.551Z,90.38
2022-09-26T08:13:19.583Z,89.84
2022-09-26T08:16:23.555Z,89.27
2022-09-26T08:19:26.163Z,88.87
2022-09-26T08:22:28.887Z,88.54
2022-09-26T08:25:31.154Z,89.59
2022-09-26T08:28:34.787Z,89.71
2022-09-26T08:31:40.232Z,87.15
2022-09-26T08:34:44.436Z,87.90
2022-09-26T08:37:51.336Z,88.22
2022-09-26T08:41:06.920Z,88.37
2022-09-26T08:44:32.764Z,87.67
2022-09-26T08:47:48.424Z,86.45
2022-09-26T08:50:54.948Z,81.23
2022-09-26T08:54:13.184Z,78.36
2022-09-26T08:57:34.298Z,76.73
2022-09-26T09:00:40.478Z,76.56
2022-09-26T09:03:49.666Z,75.55
2022-09-26T09:06:58.637Z,75.08
2022-09-26T09:10:03.055Z,76.88
2022-09-26T09:13:22.867Z,77.01
2022-09-26T09:16:28.158Z,75.12
2022-09-26T09:19:34.312Z,75.64
2022-09-26T09:22:52.405Z,75.36
2022-09-26T09:29:32.899Z,73.68
2022-09-26T09:32:49.286Z,66.49
2022-09-26T09:35:55.192Z,60.73
2022-09-26T09:39:02.740Z,61.94
2022-09-26T09:42:17.284Z,57.88
2022-09-26T09:45:27.101Z,51.91
2022-09-26T09:48:30.069Z,49.90
2022-09-26T09:51:42.969Z,46.59
2022-09-26T09:54:55.550Z,46.07
2022-09-26T09:58:07.682Z,46.30
2022-09-26T10:01:29.368Z,48.18
2022-09-26T10:04:44.364Z,49.93
2022-09-26T10:07:47.677Z,51.75
2022-09-26T10:11:00.976Z,53.59
2022-09-26T10:14:07.472Z,53.09
2022-09-26T10:17:14.253Z,53.34
2022-09-26T10:20:35.434Z,55.05
2022-09-26T10:23:45.479Z,55.59
2022-09-26T10:26:50.232Z,55.10
2022-09-26T10:29:59.028Z,55.75
2022-09-26T10:33:04.094Z,54.17
2022-09-26T10:36:09.619Z,54.06
2022-09-26T10:39:34.176Z,55.14
2022-09-26T10:42:38.212Z,55.89
2022-09-26T10:45:40.637Z,58.40
2022-09-26T10:48:56.428Z,58.16
2022-09-26T10:52:08.666Z,58.25
2022-09-26T10:55:19.332Z,58.24
2022-09-26T10:58:25.161Z,56.46
2022-09-26T11:01:31.347Z,55.73
2022-09-26T11:04:53.795Z,52.37
2022-09-26T11:08:03.442Z,52.47
2022-09-26T11:11:13.923Z,54.14
2022-09-26T11:14:27.866Z,53.94
2022-09-26T11:17:48.015Z,55.35
2022-09-26T11:20:55.014Z,56.76
2022-09-26T11:24:15.983Z,55.54
2022-09-26T11:27:31.624Z,57.52
2022-09-26T11:30:37.876Z,57.71
2022-09-26T11:33:44.203Z,56.70
2022-09-26T11:37:18.110Z,56.78
2022-09-26T11:40:31.396Z,57.64
2022-09-26T11:43:37.057Z,58.50
2022-09-26T11:46:55.375Z,57.11
2022-09-26T11:50:08.080Z,58.36
2022-09-26T11:53:26.600Z,58.97
2022-09-26T11:56:40.216Z,59.91
2022-09-26T12:00:01.690Z,54.88
2022-09-26T12:03:20.056Z,54.77
2022-09-26T12:06:26.251Z,53.87
2022-09-26T12:09:34.580Z,53.08
2022-09-26T12:12:56.640Z,52.63
2022-09-26T12:16:01.931Z,50.87
2022-09-26T12:19:19.939Z,49.18
2022-09-26T12:22:28.550Z,45.27
2022-09-26T12:25:46.040Z,46.50
2022-09-26T12:29:06.325Z,45.23
2022-09-26T12:32:23.703Z,46.89
2022-09-26T12:35:45.834Z,48.16
2022-09-26T12:38:56.348Z,49.06
2022-09-26T12:42:17.669Z,48.78
2022-09-26T12:45:42.260Z,47.01
2022-09-26T12:49:03.495Z,44.90
2022-09-26T12:52:15.728Z,43.36
2022-09-26T12:55:37.007Z,42.59
2022-09-26T12:58:45.839Z,43.18
2022-09-26T13:01:55.786Z,43.85
2022-09-26T13:04:59.366Z,42.98
2022-09-26T13:08:05.118Z,42.10
2022-09-26T13:11:32.789Z,43.52
2022-09-26T13:14:36.252Z,44.26
2022-09-26T13:17:42.113Z,46.54
2022-09-26T13:20:46.922Z,47.03
2022-09-26T13:23:57.822Z,46.79
2022-09-26T13:27:08.984Z,46.23
2022-09-26T13:30:19.646Z,46.48
2022-09-26T13:33:24.968Z,46.88
2022-09-26T13:36:31.282Z,47.64
2022-09-26T13:39:42.687Z,48.04
2022-09-26T13:42:48.144Z,49.74
2022-09-26T13:46:10.747Z,49.75
2022-09-26T13:49:13.563Z,50.77
2022-09-26T13:52:34.391Z,51.84
2022-09-26T13:55:37.170Z,52.47
2022-09-26T13:58:39.784Z,53.15
2022-09-26T14:02:02.762Z,54.32
2022-09-26T14:05:17.854Z,54.66
2022-09-26T14:09:11.384Z,54.66
2022-09-26T14:12:20.043Z,54.84
2022-09-26T14:15:28.418Z,53.84
2022-09-26T14:18:50.374Z,53.90
2022-09-26T14:22:01.983Z,54.10
2022-09-26T14:25:24.480Z,54.27
2022-09-26T14:28:32.130Z,54.23
2022-09-26T14:31:38.552Z,54.44
2022-09-26T14:34:43.759Z,55.00
2022-09-26T14:37:49.486Z,55.11
2022-09-26T14:40:54.406Z,55.47
2022-09-26T14:44:17.050Z,55.86
2022-09-26T14:47:20.498Z,56.01
2022-09-26T14:50:27.327Z,56.43
2022-09-26T14:53:29.823Z,56.74
2022-09-26T14:56:41.219Z,57.32
2022-09-26T14:59:43.821Z,57.04
2022-09-26T15:02:50.283Z,56.69
2022-09-26T15:05:53.619Z,56.30
2022-09-26T15:08:56.687Z,57.21
2022-09-26T15:12:02.321Z,57.81
2022-09-26T15:15:14.135Z,57.99
2022-09-26T15:18:52.309Z,58.66
2022-09-26T15:22:02.735Z,58.46
2022-09-26T15:25:08.955Z,58.57
2022-09-26T15:28:11.569Z,59.21
2022-09-26T15:31:21.531Z,59.61
2022-09-26T15:34:31.288Z,59.01
2022-09-26T15:37:34.925Z,59.14
2022-09-26T15:40:37.596Z,60.10
2022-09-26T15:43:40.886Z,60.60
2022-09-26T15:46:49.487Z,61.06
2022-09-26T15:50:22.668Z,61.48
2022-09-26T15:53:28.379Z,61.92
2022-09-26T15:56:34.942Z,62.55
2022-09-26T15:59:41.384Z,63.05
2022-09-26T16:02:44.210Z,63.19
2022-09-26T16:05:47.479Z,63.69
2022-09-26T16:09:06.090Z,64.19
2022-09-26T16:12:17.948Z,64.11
2022-09-26T16:15:24.836Z,64.12
2022-09-26T16:18:27.619Z,64.57
2022-09-26T16:21:34.187Z,64.89
2022-09-26T16:24:36.768Z,65.34
2022-09-26T16:27:39.201Z,65.55
2022-09-26T16:30:44.526Z,65.94
2022-09-26T16:33:49.780Z,66.23
2022-09-26T16:36:53.183Z,66.29
2022-09-26T16:39:57.177Z,66.34
2022-09-26T16:43:15.493Z,66.78
2022-09-26T16:46:25.199Z,67.08
2022-09-26T16:49:28.492Z,67.48
2022-09-26T16:52:34.454Z,68.03
2022-09-26T16:55:37.590Z,68.40
2022-09-26T16:58:57.026Z,68.91
2022-09-26T17:02:01.083Z,69.52
2022-09-26T17:05:03.779Z,69.88
2022-09-26T17:08:09.369Z,70.17
2022-09-26T17:11:14.392Z,70.52
2022-09-26T17:14:22.921Z,71.20
2022-09-26T17:17:25.827Z,71.90
2022-09-26T17:20:28.729Z,72.15
2022-09-26T17:23:41.759Z,72.37
2022-09-26T17:26:53.480Z,72.35
2022-09-26T17:29:59.641Z,72.37
2022-09-26T17:33:02.589Z,72.42
2022-09-26T17:36:10.643Z,72.47
2022-09-26T17:39:14.570Z,72.81
2022-09-26T17:42:17.335Z,73.33
2022-09-26T17:45:20.288Z,73.47
2022-09-26T17:48:31.373Z,73.52
2022-09-26T17:51:34.265Z,73.51
2022-09-26T17:54:41.965Z,73.66
2022-09-26T17:57:44.624Z,73.94
2022-09-26T18:00:49.383Z,74.13
2022-09-26T18:03:54.573Z,74.58
2022-09-26T18:07:00.583Z,74.68
2022-09-26T18:10:06.659Z,75.03
2022-09-26T18:13:13.566Z,75.34
2022-09-26T18:16:16.391Z,75.81
2022-09-26T18:19:21.538Z,76.26
2022-09-26T18:22:27.613Z,76.62
2022-09-26T18:25:30.167Z,76.97
2022-09-26T18:28:32.981Z,77.52
2022-09-26T18:31:38.370Z,77.69
2022-09-26T18:34:44.591Z,77.90
2022-09-26T18:37:47.176Z,77.80
2022-09-26T18:40:51.805Z,78.19
2022-09-26T18:43:55.766Z,78.47
2022-09-26T18:47:01.802Z,78.71
2022-09-26T18:50:05.584Z,78.87
2022-09-26T18:53:15.424Z,79.23
2022-09-26T18:56:36.525Z,79.24
2022-09-26T18:59:39.073Z,79.45
2022-09-26T19:02:42.660Z,79.45
2022-09-26T19:05:45.288Z,79.40
2022-09-26T19:08:51.858Z,79.39
2022-09-26T19:11:54.405Z,79.37
2022-09-26T19:14:56.906Z,79.28
2022-09-26T19:17:59.759Z,79.59
2022-09-26T19:21:07.655Z,79.91
2022-09-26T19:24:28.843Z,79.86
2022-09-26T19:27:33.361Z,80.29
2022-09-26T19:30:37.766Z,79.89
2022-09-26T19:33:42.755Z,79.67
2022-09-26T19:36:45.365Z,80.23
2022-09-26T19:39:50.162Z,80.49
2022-09-26T19:42:53.018Z,80.96
2022-09-26T19:45:56.957Z,81.19
2022-09-26T19:49:02.730Z,81.94
2022-09-26T19:52:06.130Z,82.13
2022-09-26T19:55:36.375Z,82.28
2022-09-26T19:58:39.450Z,81.87
2022-09-26T20:01:43.069Z,81.87
2022-09-26T20:04:46.238Z,82.66
2022-09-26T20:07:48.775Z,82.81
2022-09-26T20:10:58.763Z,82.84
2022-09-26T20:14:19.936Z,82.64
2022-09-26T20:17:26.970Z,82.64
2022-09-26T20:20:31.679Z,82.57
2022-09-26T20:23:35.234Z,82.43
2022-09-26T20:26:42.482Z,82.31
2022-09-26T20:30:07.113Z,82.13
2022-09-26T20:33:10.171Z,81.97
2022-09-26T20:36:15.982Z,81.93
2022-09-26T20:39:22.827Z,81.90
2022-09-26T20:42:31.055Z,81.79
2022-09-26T20:45:38.326Z,81.65
2022-09-26T20:48:45.722Z,81.73
2022-09-26T20:51:50.462Z,81.70
2022-09-26T20:54:54.252Z,81.66
2022-09-26T20:58:07.520Z,81.69
2022-09-26T21:01:17.186Z,81.88
2022-09-26T21:04:22.770Z,82.20
2022-09-26T21:07:26.009Z,82.62
2022-09-26T21:10:33.264Z,82.93
2022-09-26T21:13:35.997Z,83.21
2022-09-26T21:16:45.617Z,83.45
2022-09-26T21:19:48.581Z,83.58
2022-09-26T21:22:53.944Z,83.61
2022-09-26T21:25:56.921Z,83.68
2022-09-26T21:28:59.212Z,83.69
2022-09-26T21:32:04.442Z,83.69
2022-09-26T21:35:07.052Z,83.69
2022-09-26T21:38:09.855Z,83.72
2022-09-26T21:41:15.022Z,83.72
2022-09-26T21:44:21.490Z,83.83
2022-09-26T21:47:24.634Z,83.81
2022-09-26T21:50:28.983Z,83.86
2022-09-26T21:53:36.228Z,83.90
2022-09-26T21:56:48.759Z,83.85
2022-09-26T21:59:53.051Z,83.87
2022-09-26T22:02:58.130Z,83.82
2022-09-26T22:06:06.336Z,83.96
2022-09-26T22:09:10.277Z,84.04
2022-09-26T22:12:12.847Z,84.06
2022-09-26T22:15:15.376Z,84.11
2022-09-26T22:18:17.921Z,84.20
2022-09-26T22:21:20.703Z,84.17
2022-09-26T22:24:23.336Z,84.17
2022-09-26T22:27:25.924Z,84.32
2022-09-26T22:30:28.629Z,84.27
2022-09-26T22:33:31.396Z,84.29
2022-09-26T22:36:33.938Z,84.46
2022-09-26T22:39:36.519Z,84.50
2022-09-26T22:42:39.022Z,84.50
2022-09-26T22:45:41.478Z,84.58
2022-09-26T22:48:46.177Z,84.60
2022-09-26T22:51:48.777Z,84.62
2022-09-26T22:54:51.308Z,84.68
2022-09-26T22:57:54.080Z,84.56
2022-09-26T23:01:00.236Z,84.44
2022-09-26T23:04:03.411Z,84.49
2022-09-26T23:07:05.920Z,84.73
2022-09-26T23:10:08.556Z,84.93
2022-09-26T23:13:11.075Z,84.94
2022-09-26T23:16:16.154Z,84.96
2022-09-26T23:19:18.786Z,84.94
2022-09-26T23:22:21.256Z,84.93
2022-09-26T23:25:24.182Z,84.97
2022-09-26T23:28:26.741Z,84.92
2022-09-26T23:31:29.314Z,84.98
2022-09-26T23:34:31.787Z,85.10
2022-09-26T23:37:34.296Z,85.18
2022-09-26T23:40:37.433Z,85.32
2022-09-26T23:43:40.640Z,85.40
2022-09-26T23:46:43.226Z,85.51
2022-09-26T23:49:45.726Z,85.60
2022-09-26T23:52:48.125Z,85.75
2022-09-26T23:55:52.155Z,85.90
2022-09-26T23:58:55.823Z,85.79
